Bodega Marine Reserve, California Weather observations

Data are for 10 minute period ending at time listed.
 Day   Time   Solar   Ave.   Ave.  Ave.  Vector  Max.   Baro.   Total    
  of    of     Rad.   Air    Rel.  Wind   Wind   Wind  Press.  Precip.   
Year   Day            Temp.  Hum.  Speed  Dir.   Gust                    
2015   (PST)  Kw/m2    F      %     mph   deg.    mph    mb.     in.     
-------------------------------------------------------------------------
  58    9:10   0.37   55.4    85   21.0   304    29.1   1009.5    0.00 
  58    9:20   0.39   55.9    84   18.0   303    28.1   1009.5    0.00 
  58    9:30   0.42   56.0    81   17.8   296    23.6   1009.5    0.00 
  58    9:40   0.45   56.3    80   17.3   297    23.3   1009.8    0.00 
  58    9:50   0.47   56.4    81   17.9   296    24.3   1009.5    0.00 
  58   10:00   0.50   56.4    80   19.0   295    26.9   1009.5    0.00 
  58   10:10   0.52   56.4    79   20.1   295    26.9   1009.5    0.00 
  58   10:20   0.54   56.5    78   20.9   295    29.7   1009.5    0.00 
  58   10:30   0.56   56.6    76   21.5   295    28.2   1009.5    0.00 
  58   10:40   0.58   56.7    74   21.3   295    28.7   1009.5    0.00 
  58   10:50   0.59   56.8    74   21.2   294    27.8   1009.5    0.00 
  58   11:00   0.61   56.9    73   20.5   294    27.8   1009.1    0.00 
  58   11:10   0.62   57.2    73   18.8   293    26.4   1009.1    0.00 
  58   11:20   0.64   57.3    74   19.4   290    28.9   1008.8    0.00 
  58   11:30   0.65   57.4    74   19.2   295    27.8   1008.8    0.00 
  58   11:40   0.65   57.1    73   23.0   296    31.4   1008.8    0.00 
  58   11:50   0.66   57.2    74   22.6   296    31.3   1008.5    0.00 
  58   12:00   0.67   56.8    73   25.3   296    34.0   1008.5    0.00 
  58   12:10   0.67   57.0    74   22.8   296    29.8   1008.5    0.00 
  58   12:20   0.67   57.3    73   22.0   296    31.0   1008.1    0.00 
  58   12:30   0.67   57.1    72   23.6   297    33.2   1008.1    0.00 
  58   12:40   0.67   57.1    73   23.5   297    31.3   1007.8    0.00 
  58   12:50   0.67   56.9    74   23.6   296    30.4   1007.8    0.00 
  58   13:00   0.67   57.0    73   23.4   295    31.7   1007.5    0.00 
  58   13:10   0.67   56.7    72   25.8   296    32.6   1007.5    0.00 
  58   13:20   0.65   56.7    72   24.6   296    32.7   1007.1    0.00 
  58   13:30   0.65   56.8    72   25.2   296    33.3   1007.1    0.00 
  58   13:40   0.64   56.6    71   24.4   297    34.3   1006.8    0.00 
  58   13:50   0.63   56.7    71   24.1   298    34.3   1006.8    0.00 
  58   14:00   0.62   56.6    72   24.4   296    34.6   1006.8    0.00 
  58   14:10   0.60   56.8    72   23.4   294    33.0   1006.4    0.00 
  58   14:20   0.58   56.3    73   26.4   296    35.4   1006.4    0.00 
  58   14:30   0.56   56.3    72   24.1   296    34.4   1006.4    0.00 
  58   14:40   0.55   56.3    72   24.8   296    34.6   1006.4    0.00 
  58   14:50   0.53   56.2    73   24.4   296    36.1   1006.4    0.00 
  58   15:00   0.51   55.9    72   26.2   297    35.7   1006.4    0.00 
  58   15:10   0.48   55.9    74   24.1   298    32.6   1006.4    0.00 
  58   15:20   0.46   55.7    73   23.8   297    31.6   1006.4    0.00 
  58   15:30   0.43   55.5    72   25.0   299    32.8   1006.4    0.00 
  58   15:40   0.41   55.3    71   24.5   296    33.6   1006.1    0.00 
  58   15:50   0.38   55.1    72   23.8   295    31.8   1006.1    0.00 
  58   16:00   0.35   54.9    74   24.3   296    34.0   1005.8    0.00 
  58   16:10   0.32   54.7    75   24.2   297    33.0   1005.8    0.00 
  58   16:20   0.29   54.5    75   25.1   296    37.4   1005.8    0.00 
  58   16:30   0.26   54.2    75   24.8   298    34.0   1005.8    0.00 
  58   16:40   0.23   54.0    76   25.2   298    34.6   1005.8    0.00 
  58   16:50   0.20   53.8    75   23.9   298    33.7   1005.8    0.00 
  58   17:00   0.17   53.6    76   25.1   298    33.2   1005.4    0.00 
  58   17:10   0.14   53.3    76   24.6   299    34.5   1005.4    0.00 
  58   17:20   0.08   53.0    76   24.6   299    32.9   1005.4    0.00 
  58   17:30   0.03   52.9    76   24.0   299    33.8   1005.4    0.00 
  58   17:40   0.05   52.5    76   24.1   300    34.0   1005.4    0.00 
  58   17:50   0.02   52.1    78   24.0   302    34.8   1005.4    0.00 
  58   18:00   0.01   51.9    78   22.5   300    30.4   1005.1    0.00 
  58   18:10   0.01   51.8    80   23.0   302    31.8   1005.1    0.00 
  58   18:20   0.01   51.6    80   21.4   302    32.6   1005.1    0.00 
  58   18:30   0.01   51.4    82   21.1   302    29.8   1005.1    0.00 
  58   18:40   0.01   51.3    82   23.0   302    31.3   1005.1    0.00 
  58   18:50   0.01   51.2    82   21.7   300    29.5   1005.1    0.00 
  58   19:00   0.01   51.2    82   23.6   302    31.9   1004.7    0.00 
  58   19:10   0.01   51.2    81   23.6   303    33.2   1004.7    0.00 
  58   19:20   0.01   51.2    81   22.9   303    31.0   1004.7    0.00 
  58   19:30   0.01   51.2    80   23.6   303    33.5   1004.4    0.00 
  58   19:40   0.01   51.1    80   22.3   301    29.4   1004.4    0.00 
  58   19:50   0.01   51.1    81   22.2   303    31.7   1004.7    0.00 
  58   20:00   0.01   51.1    79   26.2   304    36.5   1004.4    0.00 
  58   20:10   0.01   51.1    79   24.0   304    30.5   1004.4    0.00 
  58   20:20   0.01   51.2    80   22.1   306    30.9   1004.4    0.00 
  58   20:30   0.01   51.1    81   23.4   304    32.4   1004.4    0.00 
  58   20:40   0.01   51.0    81   21.2   306    29.5   1004.4    0.00 
  58   20:50   0.01   51.0    81   22.3   305    30.4   1004.4    0.00 
  58   21:00   0.01   50.9    82   21.1   304    29.2   1004.7    0.00 
  58   21:10   0.01   50.9    81   22.1   306    28.4   1004.7    0.00 
  58   21:20   0.01   50.9    81   21.4   308    28.0   1004.7    0.00 
  58   21:30   0.01   50.9    81   20.3   310    28.6   1004.7    0.00 
  58   21:40   0.01   50.9    81   19.2   308    26.7   1004.7    0.00 
  58   21:50   0.01   50.8    82   17.9   309    24.7   1004.7    0.00 
  58   22:00   0.01   50.7    81   16.7   311    24.0   1004.7    0.00 
  58   22:10   0.01   50.8    81   17.9   314    24.7   1004.7    0.00 
  58   22:20   0.01   50.8    82   16.0   314    22.9   1004.7    0.00 
  58   22:30   0.01   50.4    81   13.3   318    17.8   1004.7    0.00 
  58   22:40   0.01   50.2    81   14.0   312    21.0   1004.7    0.00 
  58   22:50   0.01   50.0    81   14.1   308    20.5   1004.7    0.00 
  58   23:00   0.01   49.9    81   15.0   305    20.2   1004.7    0.00 
  58   23:10   0.01   49.7    82   15.1   302    21.5   1004.4    0.00 
  58   23:20   0.01   49.7    82   14.9   301    20.8   1004.4    0.00 
  58   23:30   0.01   49.7    84   14.2   302    18.7   1004.4    0.00 
  58   23:40   0.01   49.9    84   14.5   304    19.6   1004.4    0.00 
  58   23:50   0.01   49.7    85   14.5   304    19.0   1004.4    0.00 
  59    0:00   0.01   49.8    84   14.9   303    19.9   1004.4    0.00 
  59    0:10   0.01   49.7    85   14.4   304    19.1   1004.1    0.00 
  59    0:20   0.01   49.7    85   14.0   304    18.9   1004.1    0.00 
  59    0:30   0.01   49.6    84   15.2   302    19.4   1004.1    0.00 
  59    0:40   0.01   49.6    85   14.8   302    19.6   1004.1    0.00 
  59    0:50   0.01   49.6    85   14.6   302    21.5   1003.7    0.00 
  59    1:00   0.01   49.5    84   13.4   305    19.9   1004.1    0.00 
  59    1:10   0.01   49.5    85   14.0   304    18.6   1004.1    0.00 
  59    1:20   0.01   49.6    85   13.4   307    19.4   1004.1    0.00 
  59    1:30   0.01   49.6    86   10.8   318    14.9   1004.1    0.00 
  59    1:40   0.01   49.7    86   12.3   315    17.2   1004.1    0.00 
  59    1:50   0.01   49.4    86   12.1   309    16.1   1004.1    0.00 
  59    2:00   0.01   49.2    86   11.3   309    15.9   1004.1    0.00 
  59    2:10   0.01   48.9    86   11.1   306    17.8   1004.1    0.00 
  59    2:20   0.01   49.0    86   12.0   305    16.4   1004.1    0.00 
  59    2:30   0.01   49.2    86   12.2   306    16.3   1004.1    0.00 
  59    2:40   0.01   49.1    85   13.0   306    17.8   1003.7    0.00 
  59    2:50   0.01   48.9    85   13.0   305    17.2   1003.7    0.00 
  59    3:00   0.01   48.9    85   12.1   312    16.0   1003.7    0.00 
  59    3:10   0.01   48.9    84   11.4   313    15.9   1003.4    0.00 
  59    3:20   0.01   48.9    84   11.4   316    16.1   1003.4    0.00 
  59    3:30   0.01   48.9    84   11.7   311    16.0   1003.4    0.00 
  59    3:40   0.01   48.7    84   12.6   306    15.6   1003.4    0.00 
  59    3:50   0.01   48.5    84   11.2   308    14.7   1003.4    0.00 
  59    4:00   0.01   48.5    85   10.8   313    13.9   1003.4    0.00 
  59    4:10   0.01   48.6    86   10.2   312    14.6   1003.4    0.00 
  59    4:20   0.01   48.3    86   10.6   309    15.0   1003.4    0.00 
  59    4:30   0.01   48.2    87   10.3   309    14.7   1003.4    0.00 
  59    4:40   0.01   48.4    86   11.5   313    16.4   1003.4    0.00 
  59    4:50   0.01   48.4    86   12.0   309    16.8   1003.4    0.00 
  59    5:00   0.01   48.1    85   11.9   308    15.5   1003.4    0.00 
  59    5:10   0.01   48.1    85   11.4   311    14.6   1003.4    0.00 
  59    5:20   0.01   48.2    85   10.8   308    15.1   1003.4    0.00 
  59    5:30   0.01   48.0    84    9.9   308    14.0   1003.4    0.00 
  59    5:40   0.01   47.8    83   10.0   308    13.8   1003.7    0.00 
  59    5:50   0.01   47.6    83    9.6   309    14.3   1003.7    0.00 
  59    6:00   0.01   47.6    82    8.0   318    11.9   1003.7    0.00 
  59    6:10   0.01   47.4    83    8.9   304    12.1   1003.7    0.00 
  59    6:20   0.01   47.2    83    8.3   306    10.6   1003.7    0.00 
  59    6:30   0.01   47.1    83    8.9   304    11.3   1003.7    0.00 
  59    6:40   0.01   47.0    82    8.6   305    11.8   1004.1    0.00 
  59    6:50   0.01   46.9    83    9.3   304    11.8   1004.1    0.00 
  59    7:00   0.01   46.8    83    9.0   302    11.5   1004.1    0.00 
  59    7:10   0.03   47.1    82    8.3   304    12.5   1004.1    0.00 
  59    7:20   0.05   47.6    82    9.0   304    11.8   1004.1    0.00 
  59    7:30   0.07   48.4    80    8.4   305    11.0   1004.1    0.00 
  59    7:40   0.10   49.0    79    7.3   311    12.6   1004.4    0.00 
  59    7:50   0.13   49.5    78    6.9   322     9.7   1004.7    0.00 
  59    8:00   0.16   50.1    77    4.5   346     7.9   1004.7    0.00 
  59    8:10   0.19   50.2    77    5.2   338     6.6   1004.7    0.00 
  59    8:20   0.22   50.7    76    5.7   316     7.7   1004.7    0.00 
  59    8:30   0.24   51.4    74    4.1   328     7.5   1005.1    0.00 
  59    8:40   0.27   52.1    72    4.7   323     6.6   1005.4    0.00 
  59    8:50   0.30   52.2    72    5.2   312     9.0   1005.4    0.00 
  59    9:00   0.33   52.3    71    5.6   312     8.6   1005.8    0.00 

Return to Bodega Marine Reserve graphs page.


Western Regional Climate Center,wrcc@dri.edu